Impacts TAF Board
For situational awareness. Not to be used for flight planning purposes.
IDs:

KORD - Chicago/O'Hare Intl, IL, US

Issued at 2327 UTC 21 Sep 2018
Updated at 0145 UTC 22 Sep 2018
Potential Impact None Slight Moderate High
Time<<23/02Z 23/03Z 23/04Z 23/05Z 23/06Z 23/07Z 23/08Z 23/09Z 23/10Z 23/11Z 23/12Z 23/13Z 23/14Z
Type PRVL PRVL PRVL PRVL
VIS >6 >6 >6 >6
CIG -- -- -- --
Cover SKC SKC SKC SKC
FltCat VFR VFR VFR VFR
WX -- -- -- --
WDir 90 90 90 90
WSpd 6 6 6 6
WGst -- -- -- --
Raw TAF
KORD 212327Z 2200/2306 33012G19KT P6SM SCT045 OVC250
  FM220400 35011KT P6SM SCT030 BKN250
  FM221000 35007KT P6SM BKN025 OVC040
  FM221300 08012KT P6SM BKN030
  FM221700 10009KT P6SM SCT035
  FM222000 09006KT P6SM SKC


METAR Board
Radar Display
Forecast Discussion
For situational awareness. Not to be used for flight planning purposes.